Skip to Main Content

Video Notice

If you see just a black screen when trying to view Live Traffic cameras, please click inside the window to get video to play. An update to certain browsers is not allowing the video to auto-play when the window opens. 

SEARCH:
Location Air RH Dwp Precip Type Wind Speed Wind Gust Direction Pavement Temperature Date/Time
Hatem Bridge US 40 E/B 72 95 71 None 4 mph 5 mph N 71 - 71 8/16/2018 2:09:00 AM
I-270 at I-370 71 90 69 None Calm Calm N 78 - 79 8/16/2018 2:10:00 AM
I-270 at MD-109 67 100 67 None Calm Calm NE 74 - 75 8/16/2018 2:10:00 AM
I-495 at American Legion Bridge 69 98 69 None Calm Calm NW 77 - 77 8/16/2018 2:10:00 AM
I-68 at Savage Mt 65 100 65 None Calm 5 mph N 69 - 69 8/16/2018 2:10:00 AM
I-68 at Sideling Hill 69 100 69 None Calm 4 mph NW 74 - 74 8/16/2018 2:10:00 AM
I-68 at US 219 67 91 65 None Calm 5 mph W 70 - 72 8/16/2018 2:10:00 AM
I-68 at WV Line 66 88 62 None Calm Calm N 71 - 71 8/16/2018 2:05:00 AM
I-695 at I-83 69 94 68 None Calm Calm N 77 - 78 8/16/2018 2:05:00 AM
I-695 on FSK Bridge 78 76 70 None 7 mph 7 mph NE 78 - 78 8/16/2018 2:10:00 AM
I-70 at Fred-Wash Co. 70 93 68 None Calm Calm N 74 - 75 8/16/2018 2:10:00 AM
I-70 at I-695 69 95 68 None Calm 4 mph SW 78 - 78 8/16/2018 2:05:00 AM
I-70 at I-81 69 100 69 None Calm Calm SE - 8/16/2018 2:10:00 AM
I-70 at MD-27 71 90 68 None Calm Calm N 76 - 76 8/16/2018 2:10:00 AM
I-70 at MD-32 67 96 66 None Calm Calm N 75 - 77 8/16/2018 2:05:00 AM
I-83 at MD-137 69 100 69 None Calm Calm E 76 - 76 8/16/2018 2:10:00 AM
I-95 at I-695 NE 73 82 68 None Calm Calm NW 79 - 80 8/16/2018 2:10:00 AM
I-95 at Patuxent River 73 95 71 None Calm 6 mph N 77 - 77 8/16/2018 2:10:00 AM
I-95 at Tydings Bridge 72 89 69 None Calm 7 mph NE 77 - 77 8/16/2018 2:10:00 AM
I-95/495 at I-295 - - - No Data Available - - No Data Available -
I-97 at MD-100 72 88 68 None Calm 5 mph W 78 - 78 8/16/2018 2:05:00 AM
I-97 at MD-32 70 94 68 None Calm 4 mph SW 77 - 78 8/16/2018 2:10:00 AM
IS 70 W of I-270 - - - No Data Available - - No Data Available 76 - 76 8/16/2018 2:10:00 AM
MD 136 @ MD 646 72 86 68 No Data Available Calm Calm W 81 - 81 8/16/2018 2:05:00 AM
MD 20 at MD 21 71 94 69 None Calm Calm S 81 - 81 8/16/2018 2:10:00 AM
MD 23 at Meadowtree Road 69 97 68 No Data Available Calm Calm N 77 - 77 8/16/2018 2:10:00 AM
MD 231 at Patuxent River 74 89 71 None Calm Calm N 80 - 80 8/16/2018 2:10:00 AM
MD 24 at Jarrettsville Road 74 78 67 No Data Available Calm Calm NW 82 - 82 8/16/2018 2:10:00 AM
MD 260 at Cox Rd 73 92 70 None Calm Calm W 82 - 82 8/16/2018 2:10:00 AM
MD-135 at Salt Dome 68 93 66 None 5 mph 11 mph W 71 - 71 8/16/2018 2:10:00 AM
MD-140 at MD-97 70 95 68 None Calm Calm NW 75 - 77 8/16/2018 2:10:00 AM
MD-200 EB at Bonifant Rd - - - No Data Available - - No Data Available -
MD-200 WB at Muncaster Mill Rd 65 96 64 None Calm Calm N 74 - 74 8/16/2018 2:10:00 AM
MD-213 at Sassafras River 74 95 73 None Calm 4 mph SW 80 - 80 8/16/2018 2:10:00 AM
MD-24 at Rock St Park 69 100 69 None Calm Calm N 72 - 72 8/16/2018 2:10:00 AM
MD-30 at PA Line 74 80 68 None Calm 5 mph W 79 - 79 8/16/2018 2:10:00 AM
MD-33 at Knapps Narrows Drawbridge 78 82 72 None Calm 7 mph W 85 - 85 8/16/2018 2:05:00 AM
MD-344 at MD-224 72 97 71 None Calm Calm N 83 - 83 8/16/2018 2:10:00 AM
MD-4 at Patuxent River 77 94 75 None 14 mph 16 mph W 81 - 83 8/16/2018 2:10:00 AM
MD-404 at Choptank River 73 92 70 None Calm Calm SW 79 - 80 8/16/2018 2:05:00 AM
MD-43 at MD-150 73 92 71 None Calm 4 mph W 80 - 81 8/16/2018 2:10:00 AM
MD-51 at Oldtown Salt Dome 67 100 67 None Calm Calm N 78 - 78 8/16/2018 2:05:00 AM
MD-64 at MD-418 67 100 67 None Calm Calm N 77 - 78 8/16/2018 2:10:00 AM
US 301 at MD 305 70 94 69 None Calm Calm S 79 - 81 8/16/2018 2:05:00 AM
US-1 at Baltimore / Harford Co. Line 68 97 67 None Calm Calm NW 73 - 74 8/16/2018 2:10:00 AM
US-1 at Conowingo Dam 71 100 71 None Calm Calm N 79 - 79 8/16/2018 2:10:00 AM
US-13 at US-113 73 92 70 None Calm 5 mph SW 83 - 84 8/16/2018 2:05:00 AM
US-13 at US-50 70 93 68 None Calm Calm S 79 - 79 8/16/2018 2:10:00 AM
US-15 at MD-140 66 96 65 None Calm Calm N 77 - 78 8/16/2018 2:10:00 AM
US-301 at MD-5 71 100 71 None Calm Calm S 80 - 81 8/16/2018 2:10:00 AM
US-301 at Potomac 77 88 73 None Calm 4 mph NW 80 - 80 8/16/2018 2:10:00 AM
US-340 at MD-180 67 97 66 None Calm Calm NW 74 - 77 8/16/2018 2:10:00 AM
US-50 at Choptank 78 93 76 None Calm 7 mph SW 80 - 81 8/16/2018 2:10:00 AM
US-50 at I-95 74 89 70 None Calm Calm NE 80 - 82 8/16/2018 2:10:00 AM
US-50 at MD-2 73 94 72 None Calm 5 mph S 78 - 81 8/16/2018 2:10:00 AM
US-50 at MD-331 75 92 72 None Calm Calm SW 79 - 80 8/16/2018 2:10:00 AM
US-50 at OC Drawbridge 75 88 71 None Calm 6 mph SW 81 - 81 8/16/2018 2:05:00 AM
US-50 at Table Rock Rd 66 93 64 None Calm Calm N 72 - 72 8/16/2018 2:10:00 AM
US-50 Kent Narrow Bridge 76 94 74 None Calm 5 mph S 80 - 81 8/16/2018 2:10:00 AM
WPL Pier 31 77 81 71 None 7 mph 12 mph SW 83 - 83 8/16/2018 2:10:00 AM
Location Air RH Dwp Precip Type Wind Speed Wind Gust Direction Pavement Temperature Date/Time